createdAt,value
2023-03-06T00:05:13.563Z,1.8
2023-03-06T00:20:13.580Z,1.9
2023-03-06T00:35:13.584Z,1.9
2023-03-06T00:50:13.558Z,1.9
2023-03-06T01:05:13.530Z,1.9
2023-03-06T01:20:13.581Z,1.9
2023-03-06T01:35:13.541Z,1.9
2023-03-06T01:50:13.550Z,1.9
2023-03-06T02:05:13.549Z,1.9
2023-03-06T02:20:13.632Z,1.8
2023-03-06T02:35:13.564Z,1.8
2023-03-06T02:50:13.612Z,1.7
2023-03-06T03:05:13.555Z,1.7
2023-03-06T03:20:13.545Z,1.7
2023-03-06T03:35:13.542Z,1.6
2023-03-06T03:50:13.560Z,1.6
2023-03-06T04:05:13.596Z,1.5
2023-03-06T04:20:13.591Z,1.6
2023-03-06T04:35:13.527Z,1.6
2023-03-06T04:50:13.508Z,1.6
2023-03-06T05:05:13.569Z,1.5
2023-03-06T05:20:13.574Z,1.4
2023-03-06T05:35:13.572Z,1.4
2023-03-06T05:50:13.547Z,1.4
2023-03-06T06:05:13.572Z,1.4
2023-03-06T06:20:13.551Z,1.4
2023-03-06T06:35:13.513Z,1.4
2023-03-06T06:50:13.564Z,1.4
2023-03-06T07:05:13.540Z,1.6
2023-03-06T07:20:13.474Z,1.6
2023-03-06T07:35:20.005Z,1.8
2023-03-06T07:50:13.589Z,1.9
2023-03-06T08:05:13.555Z,2
2023-03-06T08:20:13.509Z,2.1
2023-03-06T08:35:13.558Z,2.3
2023-03-06T08:50:13.481Z,2.4
2023-03-06T09:05:13.562Z,2.5
2023-03-06T09:20:13.569Z,2.8
2023-03-06T09:35:13.582Z,2.9
2023-03-06T09:50:13.558Z,3
2023-03-06T10:05:13.569Z,3.2
2023-03-06T10:20:13.546Z,3.1
2023-03-06T10:35:13.592Z,3.1
2023-03-06T10:50:13.551Z,3.3
2023-03-06T11:05:13.461Z,3.2
2023-03-06T11:20:13.594Z,3.4
2023-03-06T11:35:13.544Z,3.7
2023-03-06T11:50:13.567Z,3.8
2023-03-06T12:05:13.609Z,4.2
2023-03-06T12:20:13.590Z,4.2
2023-03-06T12:35:13.543Z,4.2
2023-03-06T12:50:13.632Z,4.2
2023-03-06T13:05:13.582Z,4.3
2023-03-06T13:20:13.728Z,3.9
2023-03-06T13:35:13.567Z,3.9
2023-03-06T13:50:13.568Z,3.2
2023-03-06T14:05:13.545Z,3.4
2023-03-06T14:20:13.538Z,3.5
2023-03-06T14:35:13.578Z,3.6
2023-03-06T14:50:13.472Z,3.9
2023-03-06T15:05:13.584Z,4.1
2023-03-06T15:20:13.538Z,4.4
2023-03-06T15:35:13.572Z,4.8
2023-03-06T15:50:13.556Z,5.6
2023-03-06T16:05:13.585Z,5.6
2023-03-06T16:20:13.558Z,5
2023-03-06T16:35:13.545Z,4.5
2023-03-06T16:50:13.558Z,4.3
2023-03-06T17:05:13.600Z,4.1
2023-03-06T17:20:13.611Z,4
2023-03-06T17:35:13.570Z,4
2023-03-06T17:50:13.474Z,3.9
2023-03-06T18:05:13.569Z,3.8
2023-03-06T18:20:13.542Z,3.7
2023-03-06T18:35:13.456Z,3.7
2023-03-06T18:50:13.581Z,3.7
2023-03-06T19:05:13.573Z,3.6
2023-03-06T19:20:13.561Z,3.6
2023-03-06T19:35:13.552Z,3.6
2023-03-06T19:50:13.589Z,3.6
2023-03-06T20:05:13.571Z,3.6
2023-03-06T20:20:13.542Z,3.2
2023-03-06T20:35:13.552Z,3
2023-03-06T20:50:13.554Z,2.9
2023-03-06T21:05:13.605Z,3
2023-03-06T21:20:13.445Z,3.1
2023-03-06T21:35:13.544Z,3.1
2023-03-06T21:50:13.565Z,3
2023-03-06T22:05:13.452Z,2.9
2023-03-06T22:20:13.546Z,2.9
2023-03-06T22:35:13.452Z,2.8
2023-03-06T22:50:13.485Z,2.6
2023-03-06T23:05:13.572Z,2.6
2023-03-06T23:20:13.560Z,2.6
2023-03-06T23:35:13.568Z,2.6
2023-03-06T23:50:13.593Z,2.8
